Hibbing, MN

5:04 AM CDT on July 24, 2016 (GMT -0500)
Chisholm-hibbing | | Change Station

Elev 1352 ft 47.39 °N, 92.84 °W | Updated 11 minutes ago

Overcast
Overcast
63 °F
Feels Like 63 °F
N
4
Wind Variable Wind from South

Today
High -- | Low -- °F
--% Chance of Precip.
Yesterday
High -- | Low -- °F
Precip. -- in
Pressure 29.73 in
Visibility 6.0 miles
Clouds Scattered Clouds 100 ft
Mostly Cloudy 2100 ft
Overcast 3100 ft
Dew Point 63 °F
Humidity 100%
Rainfall 0.02 in
Snow Depth Not available.
5:40 AM 8:54 PM
Waning Gibbous, 77% visible
METAR KHIB 240953Z AUTO 18003KT 6SM BR SCT001 BKN021 OVC031 17/17 A2974 RMK AO2 RAB01E34 SLP068 P0000 T01720172
Pressure 29.73 in
Visibility 6.0 miles
Clouds Scattered Clouds 100 ft
Mostly Cloudy 2100 ft
Overcast 3100 ft
Dew Point 63 °F
Humidity 100%
Rainfall 0.02 in
Snow Depth Not available.
5:40 AM 8:54 PM
Waning Gibbous, 77% visible
METAR KHIB 240953Z AUTO 18003KT 6SM BR SCT001 BKN021 OVC031 17/17 A2974 RMK AO2 RAB01E34 SLP068 P0000 T01720172

10-Day Weather Forecast

Almanac

Astronomy

Jul. 24, 2016 Rise Set
Actual Time
Civil Twilight
Nautical Twilight
Astronomical Twilight
Moon
Length of Visible Light
Length of Day
Tomorrow will be .
, % of the Moon is Illuminated

Today's Extremes

State Highs State Lows

Community

WunderPhotos

Upload Photos

1,927,040 photos uploaded!

WunderBlog® & News

Nearby

Air Quality

  Air Quality AQ Index Pollutant
Not available.

Snow Depth

Station Depth Elevation

Earthquake Activity

City Distance Mag. Time & Date
Minimum magnitude displayed is 2.5.

Coastal Water Temperatures

Place Temperature

Stations

Nearby Weather Stations

Station Location Temp. Windchill Dew Point Humidity Wind Precip. Elev Updated Type
                   

Watches & Warnings

There are currently no watches in effect.